sensor_id;sensor_type;location;lat;lon;timestamp;pressure;altitude;pressure_sealevel;temperature;humidity
59274;BME280;45044;41.572;24.730;2023-08-17T00:02:12;91580.72;;;16.11;100.00
59274;BME280;45044;41.572;24.730;2023-08-17T00:04:40;91571.91;;;16.17;100.00
59274;BME280;45044;41.572;24.730;2023-08-17T00:07:07;91566.56;;;15.93;100.00
59274;BME280;45044;41.572;24.730;2023-08-17T00:09:34;91573.19;;;16.09;100.00
59274;BME280;45044;41.572;24.730;2023-08-17T00:12:00;91560.72;;;16.06;100.00
59274;BME280;45044;41.572;24.730;2023-08-17T00:14:28;91567.88;;;16.09;100.00
59274;BME280;45044;41.572;24.730;2023-08-17T00:16:55;91566.09;;;15.99;100.00
59274;BME280;45044;41.572;24.730;2023-08-17T00:19:21;91566.16;;;15.67;100.00
59274;BME280;45044;41.572;24.730;2023-08-17T00:21:51;91562.97;;;15.17;100.00
59274;BME280;45044;41.572;24.730;2023-08-17T00:24:19;91565.28;;;15.47;100.00
59274;BME280;45044;41.572;24.730;2023-08-17T00:26:45;91563.75;;;15.45;100.00
59274;BME280;45044;41.572;24.730;2023-08-17T00:29:12;91560.44;;;15.69;100.00
59274;BME280;45044;41.572;24.730;2023-08-17T00:31:41;91549.53;;;15.63;100.00
59274;BME280;45044;41.572;24.730;2023-08-17T00:34:08;91547.72;;;15.56;100.00
59274;BME280;45044;41.572;24.730;2023-08-17T00:36:35;91550.66;;;15.66;100.00
59274;BME280;45044;41.572;24.730;2023-08-17T00:39:02;91559.09;;;15.57;100.00
59274;BME280;45044;41.572;24.730;2023-08-17T00:41:29;91563.94;;;15.62;100.00
59274;BME280;45044;41.572;24.730;2023-08-17T00:43:56;91560.38;;;15.73;100.00
59274;BME280;45044;41.572;24.730;2023-08-17T00:46:23;91555.94;;;15.66;100.00
59274;BME280;45044;41.572;24.730;2023-08-17T00:48:51;91557.38;;;15.43;100.00
59274;BME280;45044;41.572;24.730;2023-08-17T00:51:17;91562.91;;;15.52;100.00
59274;BME280;45044;41.572;24.730;2023-08-17T00:53:46;91560.31;;;15.49;100.00
59274;BME280;45044;41.572;24.730;2023-08-17T00:56:13;91553.44;;;15.55;100.00
59274;BME280;45044;41.572;24.730;2023-08-17T00:58:41;91550.75;;;15.59;100.00
59274;BME280;45044;41.572;24.730;2023-08-17T01:01:09;91547.34;;;15.58;100.00
59274;BME280;45044;41.572;24.730;2023-08-17T01:03:35;91552.19;;;15.63;100.00
59274;BME280;45044;41.572;24.730;2023-08-17T01:06:03;91538.66;;;15.54;100.00
59274;BME280;45044;41.572;24.730;2023-08-17T01:08:30;91547.25;;;15.65;100.00
59274;BME280;45044;41.572;24.730;2023-08-17T01:11:06;91552.53;;;15.65;100.00
59274;BME280;45044;41.572;24.730;2023-08-17T01:14:04;91542.84;;;15.55;100.00
59274;BME280;45044;41.572;24.730;2023-08-17T01:16:42;91542.03;;;15.58;100.00
59274;BME280;45044;41.572;24.730;2023-08-17T01:19:12;91540.59;;;15.53;100.00
59274;BME280;45044;41.572;24.730;2023-08-17T01:21:49;91532.88;;;15.35;100.00
59274;BME280;45044;41.572;24.730;2023-08-17T01:24:16;91532.88;;;15.35;100.00
59274;BME280;45044;41.572;24.730;2023-08-17T01:26:43;91529.81;;;15.37;100.00
59274;BME280;45044;41.572;24.730;2023-08-17T01:29:10;91534.81;;;15.31;100.00
59274;BME280;45044;41.572;24.730;2023-08-17T01:31:46;91534.59;;;14.83;100.00
59274;BME280;45044;41.572;24.730;2023-08-17T01:34:18;91529.91;;;14.94;100.00
59274;BME280;45044;41.572;24.730;2023-08-17T01:36:53;91529.41;;;15.07;100.00
59274;BME280;45044;41.572;24.730;2023-08-17T01:39:26;91526.47;;;14.97;100.00
59274;BME280;45044;41.572;24.730;2023-08-17T01:41:55;91528.34;;;15.01;100.00
59274;BME280;45044;41.572;24.730;2023-08-17T01:44:24;91523.91;;;14.94;100.00
59274;BME280;45044;41.572;24.730;2023-08-17T01:46:52;91526.78;;;15.03;100.00
59274;BME280;45044;41.572;24.730;2023-08-17T01:49:19;91526.88;;;14.96;100.00
59274;BME280;45044;41.572;24.730;2023-08-17T01:51:46;91522.47;;;14.40;100.00
59274;BME280;45044;41.572;24.730;2023-08-17T01:54:13;91518.88;;;14.65;100.00
59274;BME280;45044;41.572;24.730;2023-08-17T01:56:40;91518.13;;;14.64;100.00
59274;BME280;45044;41.572;24.730;2023-08-17T01:59:06;91523.69;;;14.73;100.00
59274;BME280;45044;41.572;24.730;2023-08-17T02:01:33;91531.66;;;14.70;100.00
59274;BME280;45044;41.572;24.730;2023-08-17T02:04:00;91524.13;;;14.68;100.00
59274;BME280;45044;41.572;24.730;2023-08-17T02:06:28;91524.81;;;14.72;100.00
59274;BME280;45044;41.572;24.730;2023-08-17T02:08:55;91509.13;;;14.54;100.00
59274;BME280;45044;41.572;24.730;2023-08-17T02:11:22;91515.34;;;14.36;100.00
59274;BME280;45044;41.572;24.730;2023-08-17T02:13:49;91517.16;;;14.43;100.00
59274;BME280;45044;41.572;24.730;2023-08-17T02:16:15;91515.59;;;14.49;100.00
59274;BME280;45044;41.572;24.730;2023-08-17T02:18:42;91513.66;;;14.57;100.00
59274;BME280;45044;41.572;24.730;2023-08-17T02:21:09;91517.75;;;14.62;100.00
59274;BME280;45044;41.572;24.730;2023-08-17T02:23:36;91510.53;;;14.66;100.00
59274;BME280;45044;41.572;24.730;2023-08-17T02:26:02;91514.88;;;14.45;100.00
59274;BME280;45044;41.572;24.730;2023-08-17T02:28:29;91503.84;;;14.54;100.00
59274;BME280;45044;41.572;24.730;2023-08-17T02:30:57;91514.91;;;14.42;100.00
59274;BME280;45044;41.572;24.730;2023-08-17T02:33:24;91520.59;;;14.40;100.00
59274;BME280;45044;41.572;24.730;2023-08-17T02:35:51;91524.88;;;14.27;100.00
59274;BME280;45044;41.572;24.730;2023-08-17T02:38:18;91525.53;;;14.38;100.00
59274;BME280;45044;41.572;24.730;2023-08-17T02:40:45;91522.94;;;14.31;100.00
59274;BME280;45044;41.572;24.730;2023-08-17T02:43:12;91519.09;;;14.39;100.00
59274;BME280;45044;41.572;24.730;2023-08-17T02:45:39;91515.00;;;14.31;100.00
59274;BME280;45044;41.572;24.730;2023-08-17T02:48:05;91519.09;;;14.39;100.00
59274;BME280;45044;41.572;24.730;2023-08-17T02:50:32;91507.97;;;14.17;100.00
59274;BME280;45044;41.572;24.730;2023-08-17T02:52:59;91521.84;;;14.28;100.00
59274;BME280;45044;41.572;24.730;2023-08-17T02:55:26;91524.75;;;13.95;100.00
59274;BME280;45044;41.572;24.730;2023-08-17T02:57:53;91521.72;;;13.97;100.00
59274;BME280;45044;41.572;24.730;2023-08-17T03:00:20;91518.63;;;14.06;100.00
59274;BME280;45044;41.572;24.730;2023-08-17T03:02:46;91517.19;;;13.97;100.00
59274;BME280;45044;41.572;24.730;2023-08-17T03:05:13;91527.28;;;14.10;100.00
59274;BME280;45044;41.572;24.730;2023-08-17T03:07:40;91527.69;;;14.05;100.00
59274;BME280;45044;41.572;24.730;2023-08-17T03:10:07;91528.50;;;13.94;100.00
59274;BME280;45044;41.572;24.730;2023-08-17T03:12:33;91526.97;;;14.00;100.00
59274;BME280;45044;41.572;24.730;2023-08-17T03:15:01;91527.81;;;13.90;100.00
59274;BME280;45044;41.572;24.730;2023-08-17T03:17:28;91530.09;;;13.84;100.00
59274;BME280;45044;41.572;24.730;2023-08-17T03:19:55;91529.72;;;13.86;100.00
59274;BME280;45044;41.572;24.730;2023-08-17T03:22:22;91531.69;;;13.71;100.00
59274;BME280;45044;41.572;24.730;2023-08-17T03:24:48;91530.88;;;13.81;100.00
59274;BME280;45044;41.572;24.730;2023-08-17T03:27:15;91527.06;;;13.86;100.00
59274;BME280;45044;41.572;24.730;2023-08-17T03:29:42;91530.03;;;13.95;100.00
59274;BME280;45044;41.572;24.730;2023-08-17T03:32:09;91535.34;;;13.92;100.00
59274;BME280;45044;41.572;24.730;2023-08-17T03:34:35;91532.31;;;13.93;100.00
59274;BME280;45044;41.572;24.730;2023-08-17T03:37:03;91533.81;;;13.91;100.00
59274;BME280;45044;41.572;24.730;2023-08-17T03:39:30;91526.97;;;14.00;100.00
59274;BME280;45044;41.572;24.730;2023-08-17T03:41:57;91527.81;;;13.90;100.00
59274;BME280;45044;41.572;24.730;2023-08-17T03:44:24;91531.19;;;13.91;100.00
59274;BME280;45044;41.572;24.730;2023-08-17T03:46:50;91536.56;;;13.72;100.00
59274;BME280;45044;41.572;24.730;2023-08-17T03:49:17;91535.72;;;13.90;100.00
59274;BME280;45044;41.572;24.730;2023-08-17T03:51:44;91538.31;;;13.97;100.00
59274;BME280;45044;41.572;24.730;2023-08-17T03:54:12;91541.06;;;13.83;100.00
59274;BME280;45044;41.572;24.730;2023-08-17T03:56:39;91542.88;;;13.93;100.00
59274;BME280;45044;41.572;24.730;2023-08-17T03:59:06;91541.34;;;13.92;100.00
59274;BME280;45044;41.572;24.730;2023-08-17T04:01:33;91545.16;;;13.87;100.00
59274;BME280;45044;41.572;24.730;2023-08-17T04:04:00;91545.88;;;13.95;100.00
59274;BME280;45044;41.572;24.730;2023-08-17T04:06:26;91540.59;;;13.95;100.00
59274;BME280;45044;41.572;24.730;2023-08-17T04:08:53;91536.44;;;13.94;100.00
59274;BME280;45044;41.572;24.730;2023-08-17T04:11:20;91549.91;;;14.11;100.00
59274;BME280;45044;41.572;24.730;2023-08-17T04:13:46;91524.97;;;14.16;100.00
59274;BME280;45044;41.572;24.730;2023-08-17T04:16:13;91533.56;;;14.23;100.00
59274;BME280;45044;41.572;24.730;2023-08-17T04:18:40;91533.19;;;14.25;100.00
59274;BME280;45044;41.572;24.730;2023-08-17T04:21:07;91533.69;;;14.09;100.00
59274;BME280;45044;41.572;24.730;2023-08-17T04:23:33;91531.00;;;14.16;100.00
59274;BME280;45044;41.572;24.730;2023-08-17T04:26:00;91533.06;;;13.94;100.00
59274;BME280;45044;41.572;24.730;2023-08-17T04:28:27;91538.94;;;14.12;100.00
59274;BME280;45044;41.572;24.730;2023-08-17T04:30:54;91541.19;;;14.14;100.00
59274;BME280;45044;41.572;24.730;2023-08-17T04:33:21;91538.19;;;14.16;100.00
59274;BME280;45044;41.572;24.730;2023-08-17T04:35:47;91542.94;;;14.35;100.00
59274;BME280;45044;41.572;24.730;2023-08-17T04:38:14;91535.28;;;14.45;100.00
59274;BME280;45044;41.572;24.730;2023-08-17T04:40:41;91534.44;;;14.55;100.00
59274;BME280;45044;41.572;24.730;2023-08-17T04:43:10;91536.63;;;14.64;100.00
59274;BME280;45044;41.572;24.730;2023-08-17T04:45:37;91528.19;;;14.77;100.00
59274;BME280;45044;41.572;24.730;2023-08-17T04:48:05;91530.81;;;14.80;100.00
59274;BME280;45044;41.572;24.730;2023-08-17T04:50:32;91519.44;;;14.83;100.00
59274;BME280;45044;41.572;24.730;2023-08-17T04:52:59;91532.88;;;15.00;100.00
59274;BME280;45044;41.572;24.730;2023-08-17T04:55:26;91532.78;;;15.11;100.00
59274;BME280;45044;41.572;24.730;2023-08-17T04:57:53;91537.31;;;15.11;100.00
59274;BME280;45044;41.572;24.730;2023-08-17T05:00:19;91525.00;;;15.28;100.00
59274;BME280;45044;41.572;24.730;2023-08-17T05:02:51;91524.16;;;15.35;100.00
59274;BME280;45044;41.572;24.730;2023-08-17T05:05:18;91533.34;;;16.81;100.00
59274;BME280;45044;41.572;24.730;2023-08-17T05:07:45;91535.28;;;19.09;100.00
59274;BME280;45044;41.572;24.730;2023-08-17T05:10:12;91538.69;;;21.05;100.00
59274;BME280;45044;41.572;24.730;2023-08-17T05:12:39;91535.19;;;22.54;100.00
59274;BME280;45044;41.572;24.730;2023-08-17T05:15:06;91540.72;;;23.63;100.00
59274;BME280;45044;41.572;24.730;2023-08-17T05:17:36;91546.06;;;24.74;94.33
59274;BME280;45044;41.572;24.730;2023-08-17T05:20:04;91536.97;;;25.66;86.34
59274;BME280;45044;41.572;24.730;2023-08-17T05:22:31;91534.59;;;26.19;77.47
59274;BME280;45044;41.572;24.730;2023-08-17T05:24:58;91538.97;;;27.15;69.96
59274;BME280;45044;41.572;24.730;2023-08-17T05:27:24;91528.31;;;28.13;62.71
59274;BME280;45044;41.572;24.730;2023-08-17T05:29:51;91529.53;;;28.55;60.49
59274;BME280;45044;41.572;24.730;2023-08-17T05:32:18;91525.91;;;29.25;57.13
59274;BME280;45044;41.572;24.730;2023-08-17T05:34:46;91523.75;;;30.10;54.47
59274;BME280;45044;41.572;24.730;2023-08-17T05:37:13;91528.69;;;30.40;53.58
59274;BME280;45044;41.572;24.730;2023-08-17T05:39:41;91527.94;;;29.94;52.87
59274;BME280;45044;41.572;24.730;2023-08-17T05:42:08;91522.06;;;29.84;53.69
59274;BME280;45044;41.572;24.730;2023-08-17T05:44:40;91519.28;;;31.18;50.74
59274;BME280;45044;41.572;24.730;2023-08-17T05:47:07;91514.28;;;30.68;51.82
59274;BME280;45044;41.572;24.730;2023-08-17T05:49:33;91512.97;;;31.83;48.75
59274;BME280;45044;41.572;24.730;2023-08-17T05:52:00;91521.06;;;31.88;48.16
59274;BME280;45044;41.572;24.730;2023-08-17T05:54:27;91513.63;;;31.95;48.03
59274;BME280;45044;41.572;24.730;2023-08-17T05:56:54;91509.13;;;33.22;46.12
59274;BME280;45044;41.572;24.730;2023-08-17T05:59:21;91509.81;;;32.84;45.83
59274;BME280;45044;41.572;24.730;2023-08-17T06:01:48;91497.03;;;33.37;44.66
59274;BME280;45044;41.572;24.730;2023-08-17T06:04:15;91504.31;;;34.00;43.35
59274;BME280;45044;41.572;24.730;2023-08-17T06:06:41;91497.88;;;34.31;42.28
59274;BME280;45044;41.572;24.730;2023-08-17T06:09:08;91502.88;;;33.80;43.23
59274;BME280;45044;41.572;24.730;2023-08-17T06:11:35;91495.84;;;34.99;42.50
59274;BME280;45044;41.572;24.730;2023-08-17T06:14:02;91495.13;;;34.98;40.82
59274;BME280;45044;41.572;24.730;2023-08-17T06:16:29;91496.13;;;34.00;42.27
59274;BME280;45044;41.572;24.730;2023-08-17T06:18:56;91496.22;;;35.65;41.12
59274;BME280;45044;41.572;24.730;2023-08-17T06:21:23;91492.22;;;36.60;39.60
59274;BME280;45044;41.572;24.730;2023-08-17T06:23:50;91496.63;;;36.12;39.95
59274;BME280;45044;41.572;24.730;2023-08-17T06:26:16;91488.63;;;37.02;38.43
59274;BME280;45044;41.572;24.730;2023-08-17T06:28:43;91485.72;;;37.76;37.93
59274;BME280;45044;41.572;24.730;2023-08-17T06:31:10;91496.69;;;37.92;37.27
59274;BME280;45044;41.572;24.730;2023-08-17T06:33:37;91493.00;;;34.10;41.92
59274;BME280;45044;41.572;24.730;2023-08-17T06:36:04;91485.88;;;35.15;41.00
59274;BME280;45044;41.572;24.730;2023-08-17T06:38:30;91484.00;;;36.89;39.28
59274;BME280;45044;41.572;24.730;2023-08-17T06:40:57;91494.69;;;36.79;40.00
59274;BME280;45044;41.572;24.730;2023-08-17T06:43:24;91484.03;;;34.83;40.84
59274;BME280;45044;41.572;24.730;2023-08-17T06:45:51;91485.13;;;33.21;42.90
59274;BME280;45044;41.572;24.730;2023-08-17T06:48:17;91489.88;;;33.73;43.19
59274;BME280;45044;41.572;24.730;2023-08-17T06:50:44;91484.97;;;34.45;43.55
59274;BME280;45044;41.572;24.730;2023-08-17T06:53:11;91497.31;;;33.72;44.81
59274;BME280;45044;41.572;24.730;2023-08-17T06:55:38;91487.03;;;32.88;45.72
59274;BME280;45044;41.572;24.730;2023-08-17T06:58:04;91488.00;;;33.09;46.54
59274;BME280;45044;41.572;24.730;2023-08-17T07:00:34;91480.78;;;33.97;45.41
59274;BME280;45044;41.572;24.730;2023-08-17T07:03:02;91484.59;;;33.42;45.45
59274;BME280;45044;41.572;24.730;2023-08-17T07:05:30;91479.28;;;33.82;46.04
59274;BME280;45044;41.572;24.730;2023-08-17T07:07:57;91480.03;;;34.29;44.41
59274;BME280;45044;41.572;24.730;2023-08-17T07:10:25;91480.56;;;34.41;43.42
59274;BME280;45044;41.572;24.730;2023-08-17T07:12:52;91480.97;;;33.72;43.72
59274;BME280;45044;41.572;24.730;2023-08-17T07:15:19;91482.06;;;32.42;47.48
59274;BME280;45044;41.572;24.730;2023-08-17T07:17:46;91476.97;;;32.07;47.90
59274;BME280;45044;41.572;24.730;2023-08-17T07:20:13;91469.91;;;32.93;45.60
59274;BME280;45044;41.572;24.730;2023-08-17T07:22:43;91482.00;;;32.92;45.95
59274;BME280;45044;41.572;24.730;2023-08-17T07:25:10;91481.69;;;33.73;43.63
59274;BME280;45044;41.572;24.730;2023-08-17T07:27:37;91475.06;;;33.16;45.55
59274;BME280;45044;41.572;24.730;2023-08-17T07:30:04;91480.97;;;33.53;44.52
59274;BME280;45044;41.572;24.730;2023-08-17T07:32:31;91474.16;;;33.27;43.98
59274;BME280;45044;41.572;24.730;2023-08-17T07:34:59;91471.16;;;33.30;44.07
59274;BME280;45044;41.572;24.730;2023-08-17T07:37:25;91473.97;;;33.90;44.58
59274;BME280;45044;41.572;24.730;2023-08-17T07:39:59;91466.56;;;34.18;44.47
59274;BME280;45044;41.572;24.730;2023-08-17T07:42:26;91475.94;;;33.76;44.02
59274;BME280;45044;41.572;24.730;2023-08-17T07:44:53;91470.91;;;34.81;42.69
59274;BME280;45044;41.572;24.730;2023-08-17T07:47:20;91470.13;;;33.99;43.74
59274;BME280;45044;41.572;24.730;2023-08-17T07:49:47;91463.75;;;34.92;42.12
59274;BME280;45044;41.572;24.730;2023-08-17T07:52:16;91465.19;;;33.84;43.06
59274;BME280;45044;41.572;24.730;2023-08-17T07:54:42;91472.28;;;34.47;42.50
59274;BME280;45044;41.572;24.730;2023-08-17T07:57:09;91459.09;;;35.48;41.00
59274;BME280;45044;41.572;24.730;2023-08-17T07:59:36;91463.31;;;35.01;40.92
59274;BME280;45044;41.572;24.730;2023-08-17T08:02:03;91461.28;;;33.08;42.90
59274;BME280;45044;41.572;24.730;2023-08-17T08:04:30;91479.34;;;33.63;44.05
59274;BME280;45044;41.572;24.730;2023-08-17T08:06:57;91474.06;;;33.71;43.24
59274;BME280;45044;41.572;24.730;2023-08-17T08:09:24;91457.91;;;33.21;42.31
59274;BME280;45044;41.572;24.730;2023-08-17T08:11:51;91472.53;;;33.89;42.70
59274;BME280;45044;41.572;24.730;2023-08-17T08:14:18;91472.34;;;33.68;44.69
59274;BME280;45044;41.572;24.730;2023-08-17T08:16:45;91469.84;;;33.70;43.05
59274;BME280;45044;41.572;24.730;2023-08-17T08:19:13;91466.91;;;33.49;43.42
59274;BME280;45044;41.572;24.730;2023-08-17T08:21:39;91471.69;;;33.62;43.28
59274;BME280;45044;41.572;24.730;2023-08-17T08:24:06;91462.66;;;33.86;41.64
59274;BME280;45044;41.572;24.730;2023-08-17T08:26:43;91466.94;;;33.81;42.87
59274;BME280;45044;41.572;24.730;2023-08-17T08:29:10;91473.44;;;34.79;41.69
59274;BME280;45044;41.572;24.730;2023-08-17T08:31:37;91462.63;;;34.33;42.96
59274;BME280;45044;41.572;24.730;2023-08-17T08:34:04;91456.00;;;33.35;42.94
59274;BME280;45044;41.572;24.730;2023-08-17T08:36:31;91460.69;;;33.34;43.74
59274;BME280;45044;41.572;24.730;2023-08-17T08:38:58;91463.69;;;33.50;43.70
59274;BME280;45044;41.572;24.730;2023-08-17T08:41:26;91457.03;;;33.13;43.67
59274;BME280;45044;41.572;24.730;2023-08-17T08:43:53;91467.47;;;33.80;43.28
59274;BME280;45044;41.572;24.730;2023-08-17T08:46:22;91466.50;;;33.77;43.16
59274;BME280;45044;41.572;24.730;2023-08-17T08:48:52;91449.19;;;31.89;44.08
59274;BME280;45044;41.572;24.730;2023-08-17T08:51:25;91458.22;;;31.36;47.10
59274;BME280;45044;41.572;24.730;2023-08-17T08:54:00;91441.41;;;32.05;46.38
59274;BME280;45044;41.572;24.730;2023-08-17T08:56:31;91456.03;;;30.92;47.75
59274;BME280;45044;41.572;24.730;2023-08-17T08:59:01;91454.56;;;29.97;47.98
59274;BME280;45044;41.572;24.730;2023-08-17T09:01:30;91453.72;;;30.48;49.57
59274;BME280;45044;41.572;24.730;2023-08-17T09:04:01;91448.38;;;30.26;51.52
59274;BME280;45044;41.572;24.730;2023-08-17T09:06:29;91451.06;;;30.31;51.98
59274;BME280;45044;41.572;24.730;2023-08-17T09:08:57;91442.19;;;30.36;53.88
59274;BME280;45044;41.572;24.730;2023-08-17T09:11:24;91445.97;;;29.93;54.38
59274;BME280;45044;41.572;24.730;2023-08-17T09:13:52;91450.91;;;29.66;52.60
59274;BME280;45044;41.572;24.730;2023-08-17T09:16:19;91441.81;;;29.75;54.78
59274;BME280;45044;41.572;24.730;2023-08-17T09:18:52;91435.13;;;29.47;53.42
59274;BME280;45044;41.572;24.730;2023-08-17T09:21:21;91436.84;;;29.27;54.89
59274;BME280;45044;41.572;24.730;2023-08-17T09:23:55;91431.63;;;28.95;55.68
59274;BME280;45044;41.572;24.730;2023-08-17T09:26:30;91431.94;;;29.37;57.39
59274;BME280;45044;41.572;24.730;2023-08-17T09:28:59;91433.66;;;29.23;58.34
59274;BME280;45044;41.572;24.730;2023-08-17T09:31:30;91430.97;;;29.40;56.80
59274;BME280;45044;41.572;24.730;2023-08-17T09:33:57;91434.88;;;29.39;55.57
59274;BME280;45044;41.572;24.730;2023-08-17T09:36:25;91427.28;;;29.55;54.91
59274;BME280;45044;41.572;24.730;2023-08-17T09:38:52;91436.59;;;29.48;57.30
59274;BME280;45044;41.572;24.730;2023-08-17T09:41:19;91432.19;;;29.85;55.39
59274;BME280;45044;41.572;24.730;2023-08-17T09:43:47;91443.97;;;30.05;55.75
59274;BME280;45044;41.572;24.730;2023-08-17T09:46:14;91433.41;;;29.61;53.05
59274;BME280;45044;41.572;24.730;2023-08-17T09:48:43;91426.78;;;29.57;52.20
59274;BME280;45044;41.572;24.730;2023-08-17T09:51:15;91427.25;;;29.61;52.77
59274;BME280;45044;41.572;24.730;2023-08-17T09:53:42;91438.81;;;29.27;55.83
59274;BME280;45044;41.572;24.730;2023-08-17T09:56:09;91433.69;;;29.69;57.10
59274;BME280;45044;41.572;24.730;2023-08-17T09:58:43;91430.22;;;29.74;53.13
59274;BME280;45044;41.572;24.730;2023-08-17T10:01:10;91422.56;;;29.50;56.84
59274;BME280;45044;41.572;24.730;2023-08-17T10:03:39;91410.25;;;29.89;57.62
59274;BME280;45044;41.572;24.730;2023-08-17T10:06:09;91424.25;;;30.05;53.74
59274;BME280;45044;41.572;24.730;2023-08-17T10:08:46;91418.56;;;30.26;55.65
59274;BME280;45044;41.572;24.730;2023-08-17T10:11:16;91420.28;;;30.29;54.18
59274;BME280;45044;41.572;24.730;2023-08-17T10:13:52;91419.31;;;30.20;53.17
59274;BME280;45044;41.572;24.730;2023-08-17T10:19:15;91421.03;;;30.18;55.20
59274;BME280;45044;41.572;24.730;2023-08-17T10:21:50;91411.75;;;29.79;52.73
59274;BME280;45044;41.572;24.730;2023-08-17T10:24:19;91410.28;;;29.37;56.17
59274;BME280;45044;41.572;24.730;2023-08-17T10:26:46;91406.34;;;29.79;52.46
59274;BME280;45044;41.572;24.730;2023-08-17T10:29:14;91412.69;;;30.04;52.68
59274;BME280;45044;41.572;24.730;2023-08-17T10:31:44;91405.25;;;30.16;53.75
59274;BME280;45044;41.572;24.730;2023-08-17T10:34:14;91398.50;;;30.52;55.34
59274;BME280;45044;41.572;24.730;2023-08-17T10:36:42;91400.59;;;30.11;53.22
59274;BME280;45044;41.572;24.730;2023-08-17T10:39:20;91401.91;;;30.58;54.45
59274;BME280;45044;41.572;24.730;2023-08-17T10:41:51;91396.97;;;30.62;54.40
59274;BME280;45044;41.572;24.730;2023-08-17T10:44:37;91398.09;;;30.90;52.87
59274;BME280;45044;41.572;24.730;2023-08-17T10:47:28;91407.56;;;30.66;53.47
59274;BME280;45044;41.572;24.730;2023-08-17T10:50:04;91399.34;;;30.83;51.59
59274;BME280;45044;41.572;24.730;2023-08-17T10:52:33;91404.06;;;30.77;52.34
59274;BME280;45044;41.572;24.730;2023-08-17T10:55:09;91399.09;;;30.81;49.59
59274;BME280;45044;41.572;24.730;2023-08-17T10:57:42;91404.41;;;31.04;50.32
59274;BME280;45044;41.572;24.730;2023-08-17T11:00:21;91396.34;;;30.39;50.33
59274;BME280;45044;41.572;24.730;2023-08-17T11:03:03;91389.00;;;30.28;51.41
59274;BME280;45044;41.572;24.730;2023-08-17T11:05:52;91391.69;;;30.33;51.78
59274;BME280;45044;41.572;24.730;2023-08-17T11:08:21;91388.19;;;30.44;51.06
59274;BME280;45044;41.572;24.730;2023-08-17T11:11:11;91388.97;;;30.33;50.09
59274;BME280;45044;41.572;24.730;2023-08-17T11:13:43;91389.81;;;30.59;48.93
59274;BME280;45044;41.572;24.730;2023-08-17T11:16:12;91391.59;;;30.51;49.46
59274;BME280;45044;41.572;24.730;2023-08-17T11:18:44;91391.06;;;30.58;48.30
59274;BME280;45044;41.572;24.730;2023-08-17T11:21:11;91384.13;;;30.68;50.20
59274;BME280;45044;41.572;24.730;2023-08-17T11:23:45;91378.16;;;30.76;48.91
59274;BME280;45044;41.572;24.730;2023-08-17T11:26:15;91380.88;;;30.76;48.49
59274;BME280;45044;41.572;24.730;2023-08-17T11:28:42;91376.75;;;30.63;49.34
59274;BME280;45044;41.572;24.730;2023-08-17T11:31:12;91384.56;;;30.84;48.35
59274;BME280;45044;41.572;24.730;2023-08-17T11:33:42;91369.38;;;30.58;48.22
59274;BME280;45044;41.572;24.730;2023-08-17T11:36:09;91378.25;;;30.64;49.28
59274;BME280;45044;41.572;24.730;2023-08-17T11:38:41;91366.81;;;30.77;48.60
59274;BME280;45044;41.572;24.730;2023-08-17T11:41:09;91369.78;;;30.73;47.75
59274;BME280;45044;41.572;24.730;2023-08-17T11:43:43;91377.75;;;29.89;49.49
59274;BME280;45044;41.572;24.730;2023-08-17T11:46:11;91385.03;;;30.29;48.80
59274;BME280;45044;41.572;24.730;2023-08-17T11:48:39;91380.38;;;30.23;49.42
59274;BME280;45044;41.572;24.730;2023-08-17T11:51:05;91377.41;;;30.33;50.31
59274;BME280;45044;41.572;24.730;2023-08-17T11:53:33;91382.22;;;30.52;48.91
59274;BME280;45044;41.572;24.730;2023-08-17T11:56:01;91373.47;;;30.76;47.88
59274;BME280;45044;41.572;24.730;2023-08-17T11:58:43;91377.50;;;30.64;49.05
59274;BME280;45044;41.572;24.730;2023-08-17T12:01:12;91372.63;;;30.99;47.74
59274;BME280;45044;41.572;24.730;2023-08-17T12:03:39;91372.44;;;30.91;48.06
59274;BME280;45044;41.572;24.730;2023-08-17T12:06:09;91368.03;;;30.82;48.63
59274;BME280;45044;41.572;24.730;2023-08-17T12:08:36;91367.28;;;30.87;47.57
59274;BME280;45044;41.572;24.730;2023-08-17T12:11:03;91365.66;;;31.09;47.04
59274;BME280;45044;41.572;24.730;2023-08-17T12:13:32;91352.31;;;31.11;47.68
59274;BME280;45044;41.572;24.730;2023-08-17T12:16:00;91359.25;;;31.06;47.14
59274;BME280;45044;41.572;24.730;2023-08-17T12:18:27;91351.84;;;31.07;46.68
59274;BME280;45044;41.572;24.730;2023-08-17T12:20:55;91351.78;;;31.18;49.10
59274;BME280;45044;41.572;24.730;2023-08-17T12:23:22;91333.88;;;31.04;47.86
59274;BME280;45044;41.572;24.730;2023-08-17T12:25:53;91339.75;;;30.71;47.86
59274;BME280;45044;41.572;24.730;2023-08-17T12:28:21;91341.34;;;30.92;47.55
59274;BME280;45044;41.572;24.730;2023-08-17T12:31:00;91343.69;;;30.70;47.06
59274;BME280;45044;41.572;24.730;2023-08-17T12:33:27;91337.66;;;30.89;47.23
59274;BME280;45044;41.572;24.730;2023-08-17T12:35:54;91337.31;;;30.62;48.46
59274;BME280;45044;41.572;24.730;2023-08-17T12:38:23;91326.81;;;30.89;48.93
59274;BME280;45044;41.572;24.730;2023-08-17T12:40:50;91341.06;;;30.95;49.22
59274;BME280;45044;41.572;24.730;2023-08-17T12:43:17;91341.03;;;31.01;46.61
59274;BME280;45044;41.572;24.730;2023-08-17T12:45:44;91334.25;;;30.83;47.91
59274;BME280;45044;41.572;24.730;2023-08-17T12:48:11;91336.13;;;31.00;48.04
59274;BME280;45044;41.572;24.730;2023-08-17T12:50:38;91336.03;;;31.11;47.87
59274;BME280;45044;41.572;24.730;2023-08-17T12:53:07;91335.91;;;30.92;48.22
59274;BME280;45044;41.572;24.730;2023-08-17T12:55:34;91343.88;;;30.78;47.66